Terminal Aerodrome Forecast
Issued by NWS

Home | Current Version | Previous Version | Text Only | Print | Product List | Glossary On
Versions: 1 2 3 4 5 6 7 8 9 10 11 12 13 14 15
000
FTUS43 KLSX 100900 AAA
TAFCPS
TAF AMD
KCPS 100940Z 1010/1106 VRB03KT P6SM SCT250
      TEMPO 1010/1012 3SM BR
     FM101500 09006KT P6SM SCT250=

USA.gov is the U.S. government's official web portal to all federal, state and local government web resources and services.